Forside
METAR-TAF:

METAR-TAF

Lufthavne :

Effingham County Memorial Airport

Effingham, Illinois, USA

Breddekreds: 39-04-14N, længdekreds: 088-32-00W, højde: 179 m

Aktuelle vejr

Denne rapport blev lavet for 20 minutter siden, kl. 08:15 UTC
Vind 4 kt fra syd
Temperatur 4°C
Fugtighed 70%
Tryk 1023 hPa
Sigt: 16.1 km
skyfri

METAR: K1H2 220815Z AUTO 17004KT 10SM CLR 04/M01 A3021 RMK AO2 T00411006

Tid: 03:35 (08:35 UTC)


TAF: fraværende

Vejrobservationer og prognoser fra mere end 4000 lufthavne (METAR og TAF).

De gule og røde prikker repræsenterer de meteorologiske stationer.

Flyt musen over at se navnet på stationen.

Så klik over at se vejr observationer og prognoser.

At skifte det kort: Klik på de grønne knapper med et sort kors for at zoome ind; på den grønne knap med en bindestreg for at zoome ud; eller på de grønne pile for tilstødende kort.


METAR-TAF: